Latest Weather Observations for Perisher Valley

IDN60801

Issued at 6:02 pm EST Wednesday 26 April 2017 (issued every 30 minutes, with the page automatically refreshed every 10 minutes)

About weather observations | Map of weather stations | Latest weather observations for NSW | Other Formats
Station Details ID: 071075 Name: PERISHER VALLEY AWS Lat: -36.41 Lon: 148.41 Height: 1738.0 m
Data from the previous 72 hours. | See also: Recent months at Perisher Valley
Date/Time
EST
Temp
°C
App
Temp
°C
Dew
Point
°C
Rel
Hum
%
Delta-T
°C
Wind Press
QNH
hPa
Press
MSL
hPa
Rain since
9am
mm
Dir  Spd
km/h
Gust
km/h
Spd
kts
Gust
kts
26/06:00pm -0.9 -4.5 -2.2 91 0.5 SW 7 20 4 11 - - 10.4
26/05:30pm -0.3 -5.3 -1.1 94 0.3 SSW 15 28 8 15 - - 10.4
26/05:00pm 0.1 -4.4 -0.6 95 0.3 SSW 13 26 7 14 - - 10.4
26/04:30pm 0.2 -4.3 -0.6 94 0.3 SSW 13 24 7 13 - - 10.4
26/04:00pm 1.0 -3.5 -0.1 92 0.5 SSW 13 26 7 14 - - 10.0
26/03:30pm 1.6 -3.6 0.0 89 0.7 SSW 17 30 9 16 - - 9.8
26/03:00pm 1.9 -3.2 0.6 91 0.5 SSW 17 32 9 17 - - 9.8
26/02:30pm 2.5 -1.4 1.0 90 0.6 SSW 11 24 6 13 - - 9.8
26/02:00pm 2.0 -4.1 0.5 90 0.6 SSW 22 33 12 18 - - 9.8
26/01:30pm 2.5 -2.1 1.3 92 0.5 SSW 15 35 8 19 - - 9.8
26/01:00pm 2.4 -1.9 1.2 92 0.5 SSW 13 28 7 15 - - 9.8
26/12:30pm 3.1 -0.7 1.9 92 0.5 SW 11 22 6 12 - - 9.8
26/12:00pm 1.8 -2.2 0.8 93 0.4 WSW 11 22 6 12 - - 9.8
26/11:30am 0.9 -1.8 0.0 94 0.4 SW 4 17 2 9 - - 9.6
26/11:00am 0.8 -2.5 -0.2 93 0.4 WSW 7 17 4 9 - - 6.6
26/10:30am 1.5 -2.2 0.2 91 0.5 W 9 24 5 13 - - 3.6
26/10:00am 2.6 0.0 1.1 90 0.6 WSW 4 17 2 9 - - 1.4
26/09:30am 2.9 -2.4 1.6 91 0.6 WNW 19 35 10 19 - - 0.0
26/09:00am 3.2 -2.4 1.3 87 0.8 W 20 48 11 26 - - 56.4
26/08:30am 3.0 -5.0 1.8 92 0.5 W 33 67 18 36 - - 56.4
26/08:07am 3.0 -4.0 1.8 92 0.5 WNW 28 63 15 34 - - 56.4
26/08:00am 3.1 -2.2 1.6 90 0.7 W 19 44 10 24 - - 56.4
26/07:30am 3.0 -3.4 1.2 88 0.8 WNW 24 76 13 41 - - 56.4
26/07:00am 2.9 -4.6 1.3 89 0.7 WNW 30 67 16 36 - - 56.4
26/06:33am 2.8 -4.3 1.6 92 0.5 WNW 28 56 15 30 - - 56.4
26/06:30am 2.8 -3.5 1.6 92 0.5 WNW 24 56 13 30 - - 56.4
26/06:01am 3.0 -4.0 2.0 93 0.4 W 28 56 15 30 - - 56.4
26/06:00am 3.0 -3.6 2.0 93 0.4 W 26 56 14 30 - - 56.2
26/05:30am 3.2 -3.5 1.7 90 0.7 W 26 57 14 31 - - 56.2
26/05:19am 3.3 -3.0 1.8 90 0.7 WNW 24 50 13 27 - - 56.2
26/05:00am 3.5 -1.9 2.2 91 0.6 WNW 20 54 11 29 - - 56.2
26/04:30am 4.0 -3.6 2.7 91 0.6 WNW 32 59 17 32 - - 54.0
26/04:00am 4.3 -3.5 3.0 91 0.6 WNW 33 56 18 30 - - 53.2
26/03:43am 4.0 -2.9 2.5 90 0.7 WNW 28 52 15 28 - - 53.0
26/03:30am 4.0 -1.8 2.5 90 0.7 W 22 46 12 25 - - 52.6
26/03:00am 4.3 -1.0 3.0 91 0.6 WNW 20 43 11 23 - - 51.4
26/02:45am 4.3 -2.6 2.7 89 0.7 WNW 28 48 15 26 - - 51.2
26/02:30am 4.5 -0.8 3.2 91 0.6 WNW 20 39 11 21 - - 51.2
26/02:00am 4.7 -0.9 3.2 90 0.7 WNW 22 52 12 28 - - 51.2
26/01:30am 4.7 0.4 3.5 92 0.6 WNW 15 52 8 28 - - 51.0
26/01:00am 4.7 1.2 3.5 92 0.6 W 11 35 6 19 - - 50.2
26/12:30am 5.0 1.1 3.5 90 0.7 WNW 13 30 7 16 - - 48.4
26/12:00am 5.3 1.5 4.0 91 0.6 WNW 13 35 7 19 - - 47.8
 
Date/Time
EST
Temp
°C
App
Temp
°C
Dew
Point
°C
Rel
Hum
%
Delta-T
°C
Wind Press
QNH
hPa
Press
MSL
hPa
Rain since
9am
mm
Dir  Spd
km/h
Gust
km/h
Spd
kts
Gust
kts
25/11:30pm 5.3 1.1 4.0 91 0.6 W 15 37 8 20 - - 47.8
25/11:00pm 5.5 2.2 4.3 92 0.6 WNW 11 26 6 14 - - 47.8
25/10:30pm 5.7 1.7 4.7 93 0.5 WNW 15 39 8 21 - - 47.8
25/10:00pm 5.9 2.2 4.5 91 0.7 W 13 39 7 21 - - 46.0
25/09:30pm 5.8 2.2 4.9 94 0.4 W 13 33 7 18 - - 46.0
25/09:00pm 5.7 2.8 4.8 94 0.4 W 9 22 5 12 - - 46.0
25/08:30pm 5.8 2.1 4.6 92 0.6 W 13 32 7 17 - - 45.6
25/08:00pm 5.8 1.7 4.1 89 0.8 WSW 15 39 8 21 - - 43.8
25/07:30pm 6.4 4.1 5.0 91 0.7 W 6 17 3 9 - - 39.2
25/07:00pm 6.6 2.8 5.6 93 0.5 WSW 15 32 8 17 - - 38.4
25/06:30pm 6.7 3.6 5.7 93 0.5 WSW 11 26 6 14 - - 37.6
25/06:00pm 6.8 3.4 6.1 95 0.4 WSW 13 28 7 15 - - 35.8
25/05:30pm 6.9 3.6 6.2 95 0.4 W 13 32 7 17 - - 35.6
25/05:00pm 7.0 4.1 6.3 95 0.4 W 11 30 6 16 - - 35.4
25/04:30pm 7.7 4.8 6.6 93 0.6 W 11 35 6 19 - - 34.6
25/04:00pm 7.5 5.5 6.4 93 0.6 NW 6 20 3 11 - - 29.8
25/03:30pm 7.4 5.8 6.3 93 0.6 W 4 13 2 7 - - 28.4
25/03:00pm 7.3 4.4 6.4 94 0.5 WNW 11 28 6 15 - - 26.2
25/02:30pm 7.6 5.0 6.2 91 0.7 W 9 24 5 13 - - 26.2
25/02:00pm 7.7 3.2 6.2 90 0.8 WSW 19 46 10 25 - - 25.4
25/01:30pm 8.3 4.4 6.9 91 0.7 W 17 43 9 23 - - 24.4
25/01:00pm 8.1 2.4 6.6 90 0.8 W 26 56 14 30 - - 23.0
25/12:30pm 8.3 1.9 6.9 91 0.7 WNW 30 50 16 27 - - 21.2
25/12:27pm 8.1 2.0 6.4 89 0.9 W 28 50 15 27 - - 21.2
25/12:00pm 8.6 5.6 7.5 93 0.6 W 13 37 7 20 - - 17.8
25/11:30am 8.5 6.2 7.4 93 0.6 WNW 9 26 5 14 - - 13.4
25/11:00am 8.3 5.9 7.2 93 0.6 WNW 9 35 5 19 - - 10.4
25/10:30am 8.4 5.2 7.0 91 0.7 W 13 41 7 22 - - 7.6
25/10:00am 8.6 6.4 8.0 96 0.3 W 9 33 5 18 - - 4.0
25/09:30am 8.3 5.2 7.4 94 0.5 W 13 37 7 20 - - 1.8
25/09:00am 8.3 0.3 7.4 94 0.5 W 39 69 21 37 - - 25.8
25/08:32am 8.3 2.0 7.5 95 0.4 W 30 70 16 38 - - 23.4
25/08:30am 8.3 3.2 7.5 95 0.4 W 24 63 13 34 - - 23.2
25/08:14am 8.6 3.4 7.4 92 0.6 W 24 61 13 33 - - 22.4
25/08:00am 8.8 5.5 7.9 94 0.5 W 15 54 8 29 - - 21.4
25/07:30am 8.8 5.9 8.2 96 0.3 W 13 33 7 18 - - 18.0
25/07:00am 8.3 5.7 7.7 96 0.3 SW 11 39 6 21 - - 15.4
25/06:30am 8.8 6.8 8.5 98 0.2 NW 9 24 5 13 - - 14.4
25/06:00am 8.7 7.0 8.3 97 0.2 NW 7 24 4 13 - - 12.4
25/05:30am 8.6 6.9 8.3 98 0.2 N 7 19 4 10 - - 9.6
25/05:00am 8.8 6.7 8.2 96 0.3 NW 9 33 5 18 - - 8.4
25/04:30am 8.5 6.3 7.7 95 0.4 WNW 9 30 5 16 - - 4.8
25/04:00am 8.2 5.9 7.6 96 0.3 N 9 26 5 14 - - 1.8
25/03:30am 8.2 6.8 7.3 94 0.5 NE 4 28 2 15 - - 0.6
25/03:00am 8.3 5.5 6.8 90 0.8 NNE 11 32 6 17 - - 0.0
25/02:30am 8.5 5.2 6.6 88 1.0 N 13 32 7 17 - - 0.0
25/02:00am 8.6 5.7 6.6 87 1.0 N 11 32 6 17 - - 0.0
25/01:30am 8.6 5.4 6.7 88 1.0 NNW 13 33 7 18 - - 0.0
25/01:00am 8.6 6.1 6.6 87 1.0 W 9 32 5 17 - - 0.0
25/12:30am 8.7 5.8 6.5 86 1.1 WNW 11 33 6 18 - - 0.0
25/12:00am 8.6 6.5 6.6 87 1.0 NW 7 22 4 12 - - 0.0
 
Date/Time
EST
Temp
°C
App
Temp
°C
Dew
Point
°C
Rel
Hum
%
Delta-T
°C
Wind Press
QNH
hPa
Press
MSL
hPa
Rain since
9am
mm
Dir  Spd
km/h
Gust
km/h
Spd
kts
Gust
kts
24/11:30pm 8.7 5.9 6.8 88 1.0 NW 11 33 6 18 - - 0.0
24/11:00pm 8.7 6.8 6.7 87 1.0 W 6 20 3 11 - - 0.0
24/10:30pm 8.8 6.8 6.4 85 1.2 NW 6 20 3 11 - - 0.0
24/10:00pm 8.7 6.2 6.5 86 1.1 NNE 9 26 5 14 - - 0.0
24/09:30pm 8.6 7.0 6.4 86 1.1 NW 4 15 2 8 - - 0.0
24/09:00pm 8.6 6.4 6.2 85 1.2 NNW 7 26 4 14 - - 0.0
24/08:30pm 8.5 6.3 6.3 86 1.1 NW 7 19 4 10 - - 0.0
24/08:00pm 8.3 6.2 5.9 85 1.2 NNW 6 19 3 10 - - 0.0
24/07:30pm 7.9 6.5 5.7 86 1.1 WNW 2 13 1 7 - - 0.0
24/07:00pm 7.7 6.0 6.0 89 0.9 NW 4 9 2 5 - - 0.0
24/06:30pm 6.6 5.0 4.4 86 1.1 W 2 6 1 3 - - 0.0
24/06:00pm 7.5 5.2 4.8 83 1.3 WSW 6 11 3 6 - - 0.0
24/05:30pm 7.9 6.0 4.8 81 1.5 WSW 4 9 2 5 - - 0.0
24/05:00pm 8.6 5.5 5.4 80 1.6 W 11 22 6 12 - - 0.0
24/04:30pm 9.2 6.0 5.2 76 2.0 W 11 19 6 10 - - 0.0
24/04:00pm 9.5 6.2 4.7 72 2.4 W 11 19 6 10 - - 0.0
24/03:30pm 10.9 8.6 5.0 67 3.0 WNW 6 13 3 7 - - 0.0
24/03:00pm 10.1 6.9 4.9 70 2.6 W 11 20 6 11 - - 0.0
24/02:30pm 10.7 7.8 4.6 66 3.0 W 9 20 5 11 - - 0.0
24/02:00pm 10.8 7.7 3.8 62 3.4 W 9 20 5 11 - - 0.0
24/01:30pm 11.1 8.7 4.1 62 3.5 NNW 6 13 3 7 - - 0.0
24/01:00pm 11.3 8.6 3.8 60 3.7 NW 7 20 4 11 - - 0.0
24/12:30pm 11.6 9.1 4.6 62 3.5 WNW 7 22 4 12 - - 0.0
24/12:00pm 12.6 9.9 5.5 62 3.7 W 9 26 5 14 - - 0.0
24/11:30am 11.3 8.8 5.0 65 3.2 W 7 19 4 10 - - 0.0
24/11:00am 10.6 6.9 4.7 67 2.9 WNW 13 24 7 13 - - 0.0
24/10:30am 10.4 7.7 5.4 71 2.5 W 9 28 5 15 - - 0.0
24/10:00am 9.8 7.1 5.8 76 2.0 WNW 9 22 5 12 - - 0.0
24/09:30am 9.4 6.7 5.6 77 1.9 WNW 9 24 5 13 - - 0.0
24/09:00am 8.8 5.3 5.4 79 1.7 WNW 13 26 7 14 - - 5.0
24/08:30am 8.0 4.8 5.3 83 1.3 W 11 20 6 11 - - 5.0
24/08:00am 7.9 4.0 5.4 84 1.2 WNW 15 24 8 13 - - 5.0
24/07:30am 7.3 3.4 5.3 87 1.0 WNW 15 26 8 14 - - 5.0
24/07:00am 6.7 4.0 5.5 92 0.6 WNW 9 20 5 11 - - 5.0
24/06:30am 6.6 4.7 6.5 99 0.1 WNW 6 15 3 8 - - 5.0
24/06:00am 4.5 3.2 4.2 98 0.1 CALM 0 6 0 3 - - 5.0
24/05:30am 3.2 1.7 2.8 97 0.2 CALM 0 0 0 0 - - 5.0
24/05:00am 3.9 2.5 3.5 97 0.2 CALM 0 2 0 1 - - 5.0
24/04:30am 3.6 1.7 2.7 94 0.4 W 2 4 1 2 - - 5.0
24/04:00am 4.5 2.4 3.9 96 0.3 W 4 11 2 6 - - 5.0
24/03:30am 5.9 3.6 5.0 94 0.4 WNW 6 11 3 6 - - 5.0
24/03:00am 4.6 2.3 4.6 100 0.0 W 6 13 3 7 - - 5.0
24/02:30am 1.2 -0.6 1.1 99 0.0 CALM 0 2 0 1 - - 5.0
24/02:00am 1.3 -0.9 1.2 99 0.0 NNW 2 6 1 3 - - 5.0
24/01:30am 1.5 -0.3 1.4 99 0.0 CALM 0 7 0 4 - - 5.0
24/01:00am 1.6 -0.2 1.5 99 0.0 CALM 0 0 0 0 - - 5.0
24/12:30am 1.6 -0.2 1.5 99 0.0 CALM 0 0 0 0 - - 5.0
24/12:00am 2.0 0.3 1.9 99 0.0 CALM 0 0 0 0 - - 5.0
 
Date/Time
EST
Temp
°C
App
Temp
°C
Dew
Point
°C
Rel
Hum
%
Delta-T
°C
Wind Press
QNH
hPa
Press
MSL
hPa
Rain since
9am
mm
Dir  Spd
km/h
Gust
km/h
Spd
kts
Gust
kts
23/11:30pm 1.9 0.2 1.6 98 0.1 CALM 0 0 0 0 - - 5.0
23/11:00pm 1.5 -0.7 1.2 98 0.1 SW 2 4 1 2 - - 5.0
23/10:30pm 1.8 0.0 1.5 98 0.1 CALM 0 0 0 0 - - 5.0
23/10:00pm 1.8 -0.3 1.4 97 0.2 WSW 2 4 1 2 - - 5.0
23/09:30pm 2.5 0.5 2.1 97 0.2 SW 2 4 1 2 - - 5.0
23/09:00pm 3.3 1.7 2.7 96 0.3 CALM 0 2 0 1 - - 5.0
23/08:30pm 4.1 2.7 3.7 97 0.2 CALM 0 2 0 1 - - 5.0
23/08:00pm 4.3 2.2 3.7 96 0.3 SW 4 6 2 3 - - 5.0
23/07:30pm 4.5 3.2 3.9 96 0.3 CALM 0 2 0 1 - - 5.0
23/07:00pm 4.4 2.6 3.7 95 0.3 SW 2 4 1 2 - - 5.0
23/06:30pm 5.1 3.7 3.8 91 0.6 CALM 0 2 0 1 - - 5.0

Other Formats:

Comma delimited format used in spreadsheet applications
http://www.bom.gov.au/fwo/IDN60801/IDN60801.94915.axf

JavaScript Object Notation format (JSON) in row-major order
http://www.bom.gov.au/fwo/IDN60801/IDN60801.94915.json